Time;durP1;ratioP1;P1;durP2;ratioP2;P2;SDS_P1;SDS_P2;PMS_P1;PMS_P2;Temp;Humidity;BMP_temperature;BMP_pressure;BME280_temperature;BME280_humidity;BME280_pressure;Samples;Min_cycle;Max_cycle;Signal;HPM_P1;HPM_P2
2022/05/16 00:00:27;;;;;;;9.05;3.03;;;;;;;13.04;65.42;101349.47;5020274;28;20064;-52
2022/05/16 00:02:55;;;;;;;14.25;3.65;;;;;;;13.00;65.35;101352.41;5024028;28;20064;-49
2022/05/16 00:05:23;;;;;;;9.27;3.47;;;;;;;12.99;65.58;101348.91;5029483;28;20057;-54
2022/05/16 00:07:50;;;;;;;8.18;2.67;;;;;;;12.98;65.46;101351.66;5028865;28;20037;-50
2022/05/16 00:10:17;;;;;;;11.20;3.58;;;;;;;12.94;65.42;101345.69;5024009;28;20060;-51
2022/05/16 00:12:45;;;;;;;8.32;2.55;;;;;;;12.89;65.49;101347.75;5038500;28;20104;-51
2022/05/16 00:15:15;;;;;;;6.68;2.67;;;;;;;12.86;66.09;101348.75;5041040;28;20092;-51
2022/05/16 00:17:43;;;;;;;11.55;3.00;;;;;;;12.83;66.37;101342.78;5026849;28;20068;-51
2022/05/16 00:20:11;;;;;;;8.88;2.72;;;;;;;12.79;66.79;101350.06;5027331;28;20045;-52
2022/05/16 00:22:39;;;;;;;12.65;2.60;;;;;;;12.80;66.48;101342.97;5031322;28;20371;-49
2022/05/16 00:25:09;;;;;;;10.70;3.28;;;;;;;12.78;66.63;101342.19;5027317;28;20080;-49
2022/05/16 00:27:36;;;;;;;13.07;3.20;;;;;;;12.75;66.82;101345.03;5022605;28;20041;-52
2022/05/16 00:30:06;;;;;;;11.88;2.72;;;;;;;12.74;66.71;101344.16;5026045;28;20059;-53
2022/05/16 00:32:34;;;;;;;11.77;3.67;;;;;;;12.72;66.88;101343.41;5024515;28;20527;-52
2022/05/16 00:35:02;;;;;;;7.85;2.83;;;;;;;12.70;66.95;101349.69;5022642;28;20049;-51
2022/05/16 00:37:30;;;;;;;14.63;4.03;;;;;;;12.68;67.29;101337.44;5029002;28;20045;-53
2022/05/16 00:39:57;;;;;;;7.70;3.22;;;;;;;12.67;67.03;101342.81;5026267;28;20053;-51
2022/05/16 00:42:25;;;;;;;6.03;3.58;;;;;;;12.64;66.64;101346.47;5023822;28;20055;-51
2022/05/16 00:44:52;;;;;;;9.63;4.28;;;;;;;12.63;66.55;101336.00;5024808;28;20057;-53
2022/05/16 00:47:20;;;;;;;6.18;3.10;;;;;;;12.61;66.64;101344.00;5030468;28;20501;-52
2022/05/16 00:49:49;;;;;;;10.50;3.33;;;;;;;12.59;66.51;101345.03;5007038;28;20051;-54
2022/05/16 00:52:18;;;;;;;10.68;3.35;;;;;;;12.60;66.70;101347.56;5009477;28;20690;-56
2022/05/16 00:54:49;;;;;;;6.15;3.00;;;;;;;12.61;66.60;101345.81;5007287;28;20413;-51
2022/05/16 00:57:22;;;;;;;11.68;3.38;;;;;;;12.59;66.63;101353.78;5015162;28;20045;-55
2022/05/16 01:00:03;;;;;;;8.05;3.35;;;;;;;12.56;66.50;101348.69;5024129;28;20059;-49
2022/05/16 01:05:18;;;;;;;7.53;3.00;;;;;;;12.50;66.13;101350.81;5026516;28;20061;-50
2022/05/16 01:07:47;;;;;;;8.23;3.03;;;;;;;12.47;66.14;101356.25;5022625;28;20056;-49
2022/05/16 01:10:18;;;;;;;6.25;2.50;;;;;;;12.45;66.15;101353.72;5023169;28;20467;-53
2022/05/16 01:12:47;;;;;;;9.32;2.50;;;;;;;12.44;65.80;101351.16;5013665;28;20784;-56
2022/05/16 01:15:25;;;;;;;7.90;2.55;;;;;;;12.39;65.84;101354.06;5024487;28;20053;-51
2022/05/16 01:17:53;;;;;;;9.32;2.65;;;;;;;12.36;66.16;101347.16;5018426;28;20054;-51
2022/05/16 01:20:20;;;;;;;8.73;3.00;;;;;;;12.34;66.29;101356.94;5023647;28;20057;-50
2022/05/16 01:22:49;;;;;;;5.03;2.30;;;;;;;12.31;66.52;101343.91;5023792;28;20053;-50
2022/05/16 01:25:28;;;;;;;8.10;2.75;;;;;;;12.28;66.21;101346.72;5026231;28;20042;-54
2022/05/16 01:27:57;;;;;;;9.55;2.70;;;;;;;12.26;66.33;101345.94;5021744;28;20057;-55
2022/05/16 01:30:28;;;;;;;6.13;2.55;;;;;;;12.24;66.46;101342.53;5025551;28;20532;-57
2022/05/16 01:32:55;;;;;;;8.43;2.95;;;;;;;12.22;66.58;101352.34;5025671;28;20061;-50
2022/05/16 01:35:25;;;;;;;7.70;3.40;;;;;;;12.21;67.21;101347.16;5022419;28;20064;-53
2022/05/16 01:40:38;;;;;;;;;;;;;;;12.15;66.65;101343.03;5023048;28;20045;-55
2022/05/16 01:43:08;;;;;;;6.45;2.35;;;;;;;12.13;66.50;101337.00;5022012;28;19936;-54
2022/05/16 01:45:37;;;;;;;7.55;2.72;;;;;;;12.08;66.77;101334.59;5021908;28;20061;-53
2022/05/16 01:48:05;;;;;;;7.70;2.35;;;;;;;12.04;66.82;101337.50;5026119;28;20045;-52
2022/05/16 01:50:32;;;;;;;12.52;2.97;;;;;;;12.02;67.67;101339.34;5028509;28;20063;-54
2022/05/16 01:53:00;;;;;;;9.50;2.90;;;;;;;12.00;67.67;101330.66;5026007;28;20075;-51
2022/05/16 01:55:27;;;;;;;8.13;3.20;;;;;;;11.98;67.82;101338.69;5018365;28;20049;-57
2022/05/16 01:57:54;;;;;;;6.03;2.60;;;;;;;11.97;67.40;101330.81;5022303;28;20045;-53
2022/05/16 02:00:22;;;;;;;7.97;2.80;;;;;;;11.94;67.48;101323.94;5020439;28;20056;-56
2022/05/16 02:02:49;;;;;;;7.75;2.63;;;;;;;11.93;67.04;101324.00;5024265;28;20042;-52
2022/05/16 02:05:21;;;;;;;10.27;2.65;;;;;;;11.92;67.18;101320.50;5022527;28;20064;-51
2022/05/16 02:07:50;;;;;;;8.10;2.72;;;;;;;11.89;67.96;101318.91;5024309;28;20043;-52
2022/05/16 02:10:21;;;;;;;13.10;3.20;;;;;;;11.87;67.23;101319.91;5027051;28;20049;-50
2022/05/16 02:12:49;;;;;;;9.55;2.75;;;;;;;11.86;67.57;101313.78;5017964;28;20421;-54
2022/05/16 02:15:18;;;;;;;7.43;2.50;;;;;;;11.85;67.54;101312.09;5020408;28;20053;-50
2022/05/16 02:17:47;;;;;;;7.80;2.92;;;;;;;11.84;67.48;101310.38;5021903;28;20048;-50
2022/05/16 02:20:14;;;;;;;7.80;2.60;;;;;;;11.81;67.38;101318.44;5019856;28;20413;-50
2022/05/16 02:25:28;;;;;;;8.43;3.03;;;;;;;11.81;67.24;101315.78;5024468;28;20049;-50
2022/05/16 02:27:55;;;;;;;5.53;2.47;;;;;;;11.79;67.87;101311.50;5028101;28;20461;-52
2022/05/16 02:30:26;;;;;;;8.20;2.78;;;;;;;11.77;67.33;101308.97;5018137;28;20061;-53
2022/05/16 02:32:55;;;;;;;8.27;2.97;;;;;;;11.75;67.07;101309.97;5028101;28;20449;-48
2022/05/16 02:35:23;;;;;;;8.50;2.72;;;;;;;11.73;67.19;101309.22;5030056;28;20157;-51
2022/05/16 02:37:50;;;;;;;8.38;3.00;;;;;;;11.72;67.50;101313.63;5020387;28;20053;-53
2022/05/16 02:40:18;;;;;;;9.70;3.17;;;;;;;11.70;67.30;101302.28;5023123;28;20053;-52
2022/05/16 02:42:45;;;;;;;11.07;2.90;;;;;;;11.68;68.16;101298.06;5022959;28;20054;-51
2022/05/16 02:45:12;;;;;;;7.10;2.70;;;;;;;11.65;67.92;101304.31;5020421;28;20041;-49
2022/05/16 02:47:41;;;;;;;9.77;3.20;;;;;;;11.63;67.66;101296.50;5025706;28;20590;-51
2022/05/16 02:50:09;;;;;;;7.82;2.95;;;;;;;11.62;68.15;101289.53;5026214;28;20653;-52
2022/05/16 02:52:36;;;;;;;9.60;3.00;;;;;;;11.60;67.71;101280.84;5027450;28;20148;-49
2022/05/16 02:55:05;;;;;;;13.52;3.13;;;;;;;11.60;67.65;101282.63;5025479;28;20041;-50
2022/05/16 02:57:32;;;;;;;8.88;2.78;;;;;;;11.60;67.71;101282.63;5025519;28;20045;-51
2022/05/16 03:00:00;;;;;;;6.22;2.20;;;;;;;11.60;67.66;101285.25;5022992;28;20091;-47
2022/05/16 03:02:27;;;;;;;12.70;3.13;;;;;;;11.59;67.29;101278.28;5019197;28;20731;-48
2022/05/16 03:04:55;;;;;;;8.30;2.65;;;;;;;11.59;67.25;101289.69;5020857;28;20057;-49
2022/05/16 03:07:22;;;;;;;6.03;2.97;;;;;;;11.60;67.38;101286.09;5023971;28;20042;-51
2022/05/16 03:09:49;;;;;;;6.50;2.55;;;;;;;11.61;67.49;101282.53;5021316;28;20544;-53
2022/05/16 03:12:17;;;;;;;8.55;3.33;;;;;;;11.63;67.46;101277.19;5024657;28;20068;-51
2022/05/16 03:14:44;;;;;;;7.38;2.55;;;;;;;11.61;67.34;101279.91;5025300;28;20049;-51
2022/05/16 03:17:12;;;;;;;6.80;2.80;;;;;;;11.61;67.46;101282.53;5021577;28;20383;-49
2022/05/16 03:19:39;;;;;;;9.45;2.80;;;;;;;11.64;67.90;101274.47;5023698;28;20451;-54
2022/05/16 03:22:07;;;;;;;10.00;2.97;;;;;;;11.68;67.23;101280.44;5028634;28;20049;-51
2022/05/16 03:24:34;;;;;;;10.05;3.50;;;;;;;11.68;67.48;101272.53;5018654;28;20048;-51
2022/05/16 03:27:03;;;;;;;6.57;2.78;;;;;;;11.68;67.51;101279.59;5029004;28;20552;-55
2022/05/16 03:29:30;;;;;;;7.38;3.08;;;;;;;11.68;67.49;101271.69;5028373;28;20679;-48
2022/05/16 03:31:57;;;;;;;8.07;2.80;;;;;;;11.69;67.17;101276.00;5022908;28;20068;-49
2022/05/16 03:34:25;;;;;;;9.73;3.10;;;;;;;11.69;67.16;101281.28;5024428;28;20067;-55
2022/05/16 03:36:52;;;;;;;8.90;3.13;;;;;;;11.70;67.08;101277.72;5036351;28;20042;-52
2022/05/16 03:42:08;;;;;;;8.55;2.38;;;;;;;11.70;67.31;101273.28;5023881;28;20553;-55
2022/05/16 03:44:35;;;;;;;5.75;2.38;;;;;;;11.69;67.42;101270.75;5030168;28;20080;-53
2022/05/16 03:47:02;;;;;;;10.07;2.83;;;;;;;11.72;67.26;101267.94;5033523;28;20521;-52
2022/05/16 03:49:30;;;;;;;8.25;2.80;;;;;;;11.74;67.36;101263.44;5024448;28;20399;-52
2022/05/16 03:51:59;;;;;;;9.23;2.85;;;;;;;11.77;67.30;101265.91;5030351;28;20064;-51
2022/05/16 03:54:26;;;;;;;11.45;3.33;;;;;;;11.80;67.35;101265.75;5032770;28;20543;-51
2022/05/16 03:56:53;;;;;;;7.00;2.45;;;;;;;11.82;67.03;101269.16;5025984;28;20058;-54
2022/05/16 03:59:22;;;;;;;12.73;3.72;;;;;;;11.87;67.04;101256.59;5022195;28;20042;-48
2022/05/16 04:01:51;;;;;;;9.85;2.42;;;;;;;11.92;66.82;101270.38;5025737;28;20049;-50
2022/05/16 04:04:18;;;;;;;9.07;2.78;;;;;;;11.96;66.57;101266.66;5010280;28;20059;-53
2022/05/16 04:06:46;;;;;;;7.15;2.72;;;;;;;11.95;66.53;101267.59;5023807;28;20163;-53
2022/05/16 04:09:14;;;;;;;10.05;3.33;;;;;;;11.99;66.21;101271.75;5027628;28;20409;-55
2022/05/16 04:11:41;;;;;;;8.45;2.90;;;;;;;12.01;66.76;101272.53;5008847;28;20065;-56
2022/05/16 04:14:09;;;;;;;7.32;2.72;;;;;;;12.05;66.73;101268.78;5023101;28;20541;-53
2022/05/16 04:16:40;;;;;;;8.02;2.45;;;;;;;12.05;66.41;101260.88;5027798;28;20057;-51
2022/05/16 04:19:08;;;;;;;10.13;3.47;;;;;;;12.06;66.59;101264.34;5029655;28;20038;-53
2022/05/16 04:21:36;;;;;;;9.77;3.80;;;;;;;12.11;66.36;101268.47;5023975;28;20051;-52
2022/05/16 04:24:05;;;;;;;6.80;2.95;;;;;;;12.14;65.53;101265.63;5026538;28;20155;-56
2022/05/16 04:26:32;;;;;;;7.25;3.42;;;;;;;12.16;65.69;101266.41;5028133;28;20050;-53
2022/05/16 04:29:00;;;;;;;8.73;3.47;;;;;;;12.22;65.45;101267.00;5023373;28;20075;-55
2022/05/16 04:31:27;;;;;;;9.95;2.72;;;;;;;12.27;65.26;101257.03;5025971;28;20047;-52
2022/05/16 04:33:55;;;;;;;9.07;2.85;;;;;;;12.31;64.81;101255.94;5024926;28;20065;-52
2022/05/16 04:36:22;;;;;;;14.52;3.50;;;;;;;12.36;64.81;101261.81;5024290;28;20059;-50
2022/05/16 04:38:49;;;;;;;9.20;3.28;;;;;;;12.46;64.29;101262.97;5026483;28;20058;-53
2022/05/16 04:44:09;;;;;;;10.20;3.45;;;;;;;12.70;63.77;101270.44;5026045;28;20049;-55
2022/05/16 04:46:36;;;;;;;9.55;2.83;;;;;;;12.85;63.09;101261.66;5010936;28;20050;-53
2022/05/16 04:49:04;;;;;;;6.75;2.45;;;;;;;12.97;62.88;101260.94;5030971;28;20411;-55
2022/05/16 04:51:31;;;;;;;9.40;2.90;;;;;;;13.07;62.03;101261.25;5040844;28;20113;-57
2022/05/16 04:53:58;;;;;;;9.98;2.75;;;;;;;13.17;61.65;101262.38;5041162;28;20105;-52
2022/05/16 04:56:25;;;;;;;8.45;3.15;;;;;;;13.20;60.75;101262.22;5029677;28;20054;-53
2022/05/16 04:58:53;;;;;;;11.68;3.00;;;;;;;13.28;60.86;101270.53;5025706;28;21046;-49
2022/05/16 05:01:20;;;;;;;10.38;3.40;;;;;;;13.36;60.60;101275.38;5025224;28;20508;-55
2022/05/16 05:03:47;;;;;;;8.25;3.08;;;;;;;13.41;60.50;101268.88;5028414;28;20093;-51
2022/05/16 05:06:15;;;;;;;9.55;2.40;;;;;;;13.48;60.35;101265.88;5027140;28;20076;-48
2022/05/16 05:08:42;;;;;;;5.68;2.80;;;;;;;13.54;60.04;101261.03;5026513;28;20051;-57
2022/05/16 05:16:41;;;;;;;7.22;2.33;;;;;;;13.77;58.68;101250.84;5024624;28;20053;-55
2022/05/16 05:19:09;;;;;;;9.45;2.65;;;;;;;13.81;58.16;101247.91;5025075;28;20047;-52
2022/05/16 05:21:36;;;;;;;8.23;2.72;;;;;;;13.93;57.77;101247.13;5021823;28;20049;-53
2022/05/16 05:24:03;;;;;;;9.65;3.30;;;;;;;14.04;57.46;101253.53;5025695;28;20057;-54
2022/05/16 05:26:31;;;;;;;9.73;3.30;;;;;;;14.13;57.37;101266.19;5021695;28;20409;-58
2022/05/16 05:28:58;;;;;;;7.15;2.67;;;;;;;14.17;57.36;101265.91;5023106;28;20041;-49
2022/05/16 05:31:26;;;;;;;8.55;3.05;;;;;;;14.26;57.29;101263.63;5065475;22;20045;-56
2022/05/16 05:33:54;;;;;;;12.90;2.95;;;;;;;14.31;56.62;101264.19;5053082;28;20070;-54
2022/05/16 05:36:22;;;;;;;10.30;4.00;;;;;;;14.39;56.39;101253.94;5043988;28;20054;-55
2022/05/16 05:38:51;;;;;;;10.98;3.85;;;;;;;14.42;56.05;101254.59;5064724;28;20052;-53
2022/05/16 05:41:21;;;;;;;8.73;2.38;;;;;;;14.52;56.46;101261.97;5067294;28;20059;-53
2022/05/16 05:43:49;;;;;;;8.98;2.95;;;;;;;14.62;55.86;101263.91;5046861;28;20052;-52
2022/05/16 05:46:17;;;;;;;6.03;2.78;;;;;;;14.68;55.16;101262.69;5048797;28;20041;-48
2022/05/16 05:48:45;;;;;;;4.50;2.10;;;;;;;14.74;55.06;101264.91;5042956;28;20048;-54
2022/05/16 05:51:14;;;;;;;8.23;2.83;;;;;;;14.87;54.77;101254.34;5062970;28;20136;-49
2022/05/16 05:53:42;;;;;;;7.05;3.10;;;;;;;14.99;54.41;101261.47;5060134;28;20067;-54
2022/05/16 05:56:11;;;;;;;8.60;3.08;;;;;;;15.04;54.19;101261.16;5047113;28;20041;-55
2022/05/16 05:58:39;;;;;;;9.35;2.72;;;;;;;15.14;54.02;101267.56;5066407;28;20048;-54
2022/05/16 06:01:06;;;;;;;11.75;3.38;;;;;;;15.23;54.08;101268.72;5057896;28;20062;-59
2022/05/16 06:03:34;;;;;;;10.35;2.42;;;;;;;15.34;53.78;101259.06;5059979;28;20431;-58
2022/05/16 06:06:02;;;;;;;10.77;2.53;;;;;;;15.48;53.01;101254.63;5063904;28;20068;-56
2022/05/16 06:08:29;;;;;;;5.93;2.33;;;;;;;15.52;52.69;101250.78;5066207;28;20047;-54
2022/05/16 06:10:56;;;;;;;7.22;2.55;;;;;;;15.57;52.97;101262.78;5057120;28;20547;-52
2022/05/16 06:13:23;;;;;;;9.07;2.75;;;;;;;15.56;52.81;101263.75;5062892;28;20046;-51
2022/05/16 06:15:51;;;;;;;5.72;2.75;;;;;;;15.64;52.22;101263.25;5060848;28;20052;-57
2022/05/16 06:18:18;;;;;;;9.88;2.72;;;;;;;15.68;51.97;101259.44;5048336;28;20048;-55
2022/05/16 06:20:45;;;;;;;7.10;2.35;;;;;;;15.75;51.59;101258.03;5047903;28;20052;-55
2022/05/16 06:23:13;;;;;;;7.72;2.35;;;;;;;15.83;51.29;101250.38;5063928;28;20074;-57
2022/05/16 06:25:42;;;;;;;7.28;2.63;;;;;;;15.98;51.18;101250.22;5050335;28;20044;-53
2022/05/16 06:28:17;;;;;;;11.13;2.75;;;;;;;16.05;51.12;101257.66;5059945;28;20047;-54
2022/05/16 06:30:46;;;;;;;8.02;2.70;;;;;;;16.16;50.95;101256.88;5059062;28;20049;-52
2022/05/16 06:33:14;;;;;;;9.27;2.88;;;;;;;16.29;50.29;101262.16;5061035;28;20053;-48
2022/05/16 06:35:42;;;;;;;9.57;2.55;;;;;;;16.42;49.56;101262.94;5057019;28;20040;-54
2022/05/16 06:38:19;;;;;;;10.65;2.22;;;;;;;16.48;49.36;101257.19;5062338;28;20053;-57
2022/05/16 06:40:47;;;;;;;8.00;2.50;;;;;;;16.66;49.03;101255.84;5061488;28;20051;-55
2022/05/16 06:43:16;;;;;;;4.72;2.63;;;;;;;16.77;48.74;101264.84;5060389;28;20130;-55
2022/05/16 06:45:43;;;;;;;8.45;2.25;;;;;;;16.90;48.49;101268.28;5061398;28;20063;-57
2022/05/16 06:48:11;;;;;;;8.35;2.97;;;;;;;17.05;47.93;101258.28;5062576;28;20059;-54
2022/05/16 06:50:39;;;;;;;6.10;2.45;;;;;;;17.14;47.12;101249.59;5065270;28;20399;-56
2022/05/16 06:53:12;;;;;;;8.07;2.55;;;;;;;17.23;47.29;101259.53;5061070;28;20059;-53
2022/05/16 06:55:40;;;;;;;6.80;1.98;;;;;;;17.34;47.33;101264.06;5057384;28;20051;-52
2022/05/16 06:58:07;;;;;;;9.70;2.67;;;;;;;17.45;47.24;101270.22;5060039;28;20523;-55
2022/05/16 07:00:35;;;;;;;5.78;2.03;;;;;;;17.53;46.98;101261.66;5046457;28;20473;-57
2022/05/16 07:03:04;;;;;;;6.93;3.05;;;;;;;17.69;47.22;101267.44;5066050;28;20060;-54
2022/05/16 07:05:48;;;;;;;6.85;2.13;;;;;;;17.90;45.52;101264.09;5068069;28;20528;-54
2022/05/16 07:08:19;;;;;;;6.15;2.45;;;;;;;17.95;45.38;101265.44;5061039;28;20136;-52
2022/05/16 07:10:48;;;;;;;9.45;3.13;;;;;;;18.07;45.18;101271.59;5044798;28;20051;-55
2022/05/16 07:13:23;;;;;;;9.98;2.75;;;;;;;18.19;45.03;101262.63;5046211;28;20046;-56
2022/05/16 07:15:51;;;;;;;8.07;2.38;;;;;;;18.35;44.66;101264.88;5063149;28;20093;-55
2022/05/16 07:18:18;;;;;;;7.03;2.42;;;;;;;18.48;44.78;101254.06;5045179;28;20051;-55
2022/05/16 07:20:46;;;;;;;9.45;2.28;;;;;;;18.61;44.73;101254.75;5063781;28;20984;-52
2022/05/16 07:23:13;;;;;;;7.07;2.33;;;;;;;18.68;44.50;101255.91;5068555;28;20048;-54
2022/05/16 07:28:26;;;;;;;8.15;2.63;;;;;;;19.00;43.97;101263.06;5068479;28;20048;-59
2022/05/16 07:30:54;;;;;;;4.60;2.33;;;;;;;19.06;43.38;101251.91;5047142;28;20488;-59
2022/05/16 07:33:21;;;;;;;9.65;3.20;;;;;;;19.20;43.39;101258.75;5068261;28;20070;-54
2022/05/16 07:35:52;;;;;;;11.90;3.15;;;;;;;19.26;43.21;101262.69;5066189;28;20048;-58
2022/05/16 07:38:21;;;;;;;7.43;2.60;;;;;;;19.24;43.12;101246.81;5063986;28;20045;-56
2022/05/16 07:40:49;;;;;;;7.28;2.60;;;;;;;19.31;42.76;101242.63;5065273;28;20036;-54
2022/05/16 07:43:17;;;;;;;6.18;2.00;;;;;;;19.34;43.08;101249.56;5067359;28;20500;-50
2022/05/16 07:45:46;;;;;;;6.97;2.30;;;;;;;19.39;42.95;101250.00;5064503;28;20065;-54
2022/05/16 07:48:14;;;;;;;5.47;2.40;;;;;;;19.49;42.77;101256.22;5066149;28;20546;-56
2022/05/16 07:50:42;;;;;;;6.75;2.80;;;;;;;19.62;42.33;101262.22;5061716;28;20055;-54
2022/05/16 07:53:12;;;;;;;7.97;3.00;;;;;;;19.87;41.67;101258.28;5070238;28;20052;-57
2022/05/16 07:55:42;;;;;;;7.60;2.08;;;;;;;19.95;41.38;101265.63;5062749;28;20057;-57
2022/05/16 07:58:09;;;;;;;7.55;2.25;;;;;;;19.94;41.00;101256.72;5066676;28;20060;-58
2022/05/16 08:00:37;;;;;;;9.10;2.70;;;;;;;19.96;40.81;101259.28;5066171;28;20044;-60
2022/05/16 08:03:04;;;;;;;8.73;2.50;;;;;;;19.87;40.94;101254.75;5069352;28;20048;-55
2022/05/16 08:05:34;;;;;;;7.45;2.28;;;;;;;19.90;40.90;101255.34;5065401;28;20538;-53
2022/05/16 08:10:47;;;;;;;8.05;2.60;;;;;;;20.02;41.46;101256.06;5062642;28;20071;-52
2022/05/16 08:13:14;;;;;;;8.20;2.78;;;;;;;20.26;40.51;101254.84;5065918;28;20400;-53
2022/05/16 08:15:43;;;;;;;5.43;2.30;;;;;;;20.41;40.43;101240.94;5061590;28;20873;-48
2022/05/16 08:18:12;;;;;;;5.95;3.17;;;;;;;20.60;40.28;101245.50;5063384;28;20411;-54
2022/05/16 08:20:42;;;;;;;9.75;2.28;;;;;;;20.77;39.95;101246.63;5061853;28;20056;-51
2022/05/16 08:23:12;;;;;;;11.55;2.60;;;;;;;20.83;39.76;101242.53;5047815;28;20135;-58
2022/05/16 08:25:40;;;;;;;13.77;2.60;;;;;;;20.92;39.61;101241.69;5062650;28;20052;-58
2022/05/16 08:28:07;;;;;;;6.03;2.45;;;;;;;20.94;39.42;101237.88;5066328;28;20053;-52
2022/05/16 08:30:35;;;;;;;6.20;2.63;;;;;;;21.12;39.57;101235.31;5065958;28;20052;-52
2022/05/16 08:33:02;;;;;;;10.07;2.58;;;;;;;21.31;39.59;101231.78;5064962;28;20051;-52
2022/05/16 08:35:30;;;;;;;5.32;2.25;;;;;;;21.40;38.63;101240.78;5062613;28;20063;-50
2022/05/16 08:40:58;;;;;;;8.90;2.72;;;;;;;21.59;38.11;101230.00;5061576;28;20044;-52
2022/05/16 08:43:28;;;;;;;6.22;2.15;;;;;;;21.66;38.14;101235.59;5045508;28;20059;-51
2022/05/16 08:46:05;;;;;;;4.40;2.00;;;;;;;21.60;37.19;101237.03;5063052;28;20153;-47
2022/05/16 08:48:36;;;;;;;4.68;1.75;;;;;;;21.69;37.28;101232.63;5043146;28;20123;-55
2022/05/16 08:51:14;;;;;;;10.18;2.25;;;;;;;21.66;37.09;101228.41;5047888;28;20346;-51
2022/05/16 08:53:45;;;;;;;8.85;2.80;;;;;;;21.71;36.95;101227.97;5042871;28;20048;-55
2022/05/16 08:56:26;;;;;;;8.15;2.30;;;;;;;21.70;37.28;101228.94;5061928;28;20068;-58
2022/05/16 08:59:03;;;;;;;8.68;2.42;;;;;;;21.64;37.24;101230.38;5050588;28;20092;-53
2022/05/16 09:02:02;;;;;;;6.70;2.30;;;;;;;21.59;36.07;101227.31;5046274;28;20056;-55
2022/05/16 09:04:41;;;;;;;3.72;1.70;;;;;;;21.62;36.22;101227.03;5044441;28;20056;-53
2022/05/16 09:07:15;;;;;;;8.45;2.45;;;;;;;21.64;36.24;101222.34;5064264;28;20070;-56
2022/05/16 09:10:05;;;;;;;5.45;2.13;;;;;;;21.70;36.03;101218.22;5044364;28;20040;-52
2022/05/16 09:12:51;;;;;;;7.82;2.17;;;;;;;21.88;36.06;101218.28;5044163;28;20384;-48
2022/05/16 09:15:36;;;;;;;5.53;2.22;;;;;;;22.13;35.69;101222.97;5055642;28;20146;-50
2022/05/16 09:18:24;;;;;;;8.77;2.03;;;;;;;22.31;37.03;101214.09;5046674;28;20054;-53
2022/05/16 09:21:05;;;;;;;6.35;2.05;;;;;;;22.58;36.23;101213.19;5063702;28;20548;-56
2022/05/16 09:24:00;;;;;;;9.15;2.10;;;;;;;22.70;35.17;101209.28;5047996;28;20906;-52
2022/05/16 09:26:33;;;;;;;4.88;1.98;;;;;;;22.83;35.62;101204.34;5061424;28;20060;-49
2022/05/16 09:29:12;;;;;;;10.95;2.33;;;;;;;23.02;35.55;101215.94;5064142;28;20482;-52
2022/05/16 09:31:43;;;;;;;3.15;1.60;;;;;;;23.08;34.29;101201.84;5061830;28;20435;-49
2022/05/16 09:34:10;;;;;;;6.35;1.77;;;;;;;23.21;34.08;101191.53;5047383;28;20048;-55
2022/05/16 09:36:41;;;;;;;4.38;1.80;;;;;;;23.17;33.20;101182.94;5059516;28;20048;-59
2022/05/16 09:39:10;;;;;;;5.40;1.83;;;;;;;23.19;34.01;101189.03;5047453;28;20075;-52
2022/05/16 09:42:03;;;;;;;6.22;1.40;;;;;;;23.16;33.23;101181.28;5061453;28;20051;-51
2022/05/16 09:44:34;;;;;;;4.82;1.83;;;;;;;23.22;32.97;101188.69;5062463;28;20055;-52
2022/05/16 09:47:16;;;;;;;5.53;1.70;;;;;;;23.22;32.91;101177.94;5063118;28;20044;-54
2022/05/16 09:49:43;;;;;;;7.32;2.13;;;;;;;23.46;34.01;101187.13;5063017;28;20055;-50
2022/05/16 09:52:16;;;;;;;5.70;2.13;;;;;;;23.79;33.95;101190.84;5061055;28;20412;-55
2022/05/16 09:54:44;;;;;;;3.65;1.85;;;;;;;24.09;32.81;101178.66;5037817;28;20045;-55
2022/05/16 09:57:16;;;;;;;7.40;2.10;;;;;;;24.18;32.72;101177.66;5061866;28;20040;-57
2022/05/16 09:59:51;;;;;;;6.72;1.50;;;;;;;24.34;32.13;101182.22;5046867;28;20116;-53
2022/05/16 10:02:30;;;;;;;5.40;2.07;;;;;;;24.49;31.87;101174.34;5062022;28;20071;-51
2022/05/16 10:05:00;;;;;;;8.02;1.63;;;;;;;24.22;31.15;101183.53;5062233;28;20059;-55
2022/05/16 10:07:45;;;;;;;9.05;2.00;;;;;;;23.94;30.70;101189.19;5063733;28;20097;-54
2022/05/16 10:10:36;;;;;;;5.57;1.85;;;;;;;23.65;30.66;101184.25;5061045;28;21817;-56
2022/05/16 10:13:03;;;;;;;4.72;1.50;;;;;;;23.65;31.29;101184.25;5064304;28;20049;-50
2022/05/16 10:15:32;;;;;;;4.00;1.42;;;;;;;23.58;29.85;101187.69;5044912;28;20060;-58
2022/05/16 10:18:00;;;;;;;5.35;1.38;;;;;;;23.64;29.76;101181.66;5066008;28;20047;-54
2022/05/16 10:20:33;;;;;;;4.35;1.90;;;;;;;23.83;30.74;101184.13;5066772;28;20048;-53
2022/05/16 10:23:04;;;;;;;4.88;1.52;;;;;;;23.92;30.79;101180.47;5045206;28;20365;-55
2022/05/16 10:25:43;;;;;;;3.67;1.73;;;;;;;24.17;31.53;101169.75;5047141;28;20052;-50
2022/05/16 10:28:15;;;;;;;4.85;1.73;;;;;;;24.41;31.27;101163.59;5046563;28;20056;-56
2022/05/16 10:33:30;;;;;;;5.68;1.70;;;;;;;24.66;30.12;101161.72;5045998;28;20509;-56
2022/05/16 10:36:23;;;;;;;6.43;1.63;;;;;;;24.54;29.28;101152.31;5043481;28;20495;-48
2022/05/16 10:39:19;;;;;;;4.45;1.38;;;;;;;24.41;29.36;101155.53;5023000;28;20052;-54
2022/05/16 10:42:11;;;;;;;5.32;2.03;;;;;;;24.48;30.10;101151.97;5056663;28;20059;-51
2022/05/16 10:45:09;;;;;;;4.97;1.70;;;;;;;24.69;30.25;101151.47;5060042;28;20049;-54
2022/05/16 10:47:39;;;;;;;5.90;1.67;;;;;;;24.92;29.77;101140.84;5042514;28;20082;-55
2022/05/16 10:50:11;;;;;;;4.90;1.83;;;;;;;25.16;30.59;101145.34;5062702;28;20070;-53
2022/05/16 10:53:09;;;;;;;4.72;1.48;;;;;;;25.40;29.98;101140.91;5064793;28;20082;-58
2022/05/16 10:56:23;;;;;;;2.95;1.50;;;;;;;25.49;29.17;101139.84;5011758;28;20055;-54
2022/05/16 10:59:16;;;;;;;3.33;1.38;;;;;;;25.71;29.27;101135.50;5016142;28;20051;-54
2022/05/16 11:02:06;;;;;;;4.30;1.75;;;;;;;26.09;29.60;101131.09;5043049;28;20047;-56
2022/05/16 11:05:09;;;;;;;6.57;1.90;;;;;;;26.40;29.30;101122.94;5046515;28;20048;-57
2022/05/16 11:07:59;;;;;;;3.72;1.50;;;;;;;26.66;28.19;101124.44;5060305;28;20067;-56
2022/05/16 11:11:00;;;;;;;6.50;2.05;;;;;;;26.80;26.12;101123.59;5054524;28;20032;-56
2022/05/16 11:13:36;;;;;;;5.05;1.48;;;;;;;26.89;26.23;101109.00;5046050;28;20036;-52
2022/05/16 11:16:22;;;;;;;4.10;1.73;;;;;;;27.10;27.96;101112.84;5044281;28;20041;-63
2022/05/16 11:19:16;;;;;;;6.43;1.80;;;;;;;27.41;28.40;101109.91;5028942;28;20051;-54
2022/05/16 11:22:18;;;;;;;4.85;1.80;;;;;;;27.55;27.75;101100.94;5043528;28;20037;-57
2022/05/16 11:24:58;;;;;;;6.97;1.50;;;;;;;27.59;27.61;101115.75;5062463;28;20036;-55
2022/05/16 11:28:04;;;;;;;3.85;1.75;;;;;;;27.67;26.74;101112.94;5042331;28;20484;-50
2022/05/16 11:30:40;;;;;;;;;;;;;;;27.71;27.96;101103.41;5039879;28;20140;-52
2022/05/16 11:33:44;;;;;;;3.42;1.55;;;;;;;28.01;26.97;101106.91;5041780;28;20287;-55
2022/05/16 11:36:19;;;;;;;2.50;1.50;;;;;;;28.20;25.75;101102.69;5059551;28;20051;-54
2022/05/16 11:38:55;;;;;;;;;;;;;;;28.50;24.81;101107.97;5040892;28;20052;-53
2022/05/16 11:41:26;;;;;;;;;;;;;;;28.70;23.69;101108.13;5056658;28;19964;-56
2022/05/16 11:44:23;;;;;;;4.75;1.60;;;;;;;28.76;23.54;101105.44;5038555;28;19929;-48
2022/05/16 11:46:57;;;;;;;2.40;1.50;;;;;;;28.72;24.16;101106.88;5061644;28;20056;-56
2022/05/16 11:50:03;;;;;;;4.47;1.55;;;;;;;28.54;24.59;101092.16;5043627;28;20045;-55
2022/05/16 11:53:15;;;;;;;5.03;2.00;;;;;;;28.50;25.04;101095.28;5064310;28;20052;-58
2022/05/16 12:01:38;;;;;;;2.97;1.58;;;;;;;28.08;23.75;101090.72;5041968;28;20079;-58
2022/05/16 12:04:15;;;;;;;4.53;1.83;;;;;;;28.21;23.62;101082.72;5053253;28;20508;-55
2022/05/16 12:06:45;;;;;;;6.13;1.75;;;;;;;28.54;24.22;101084.03;5050646;28;20063;-55
2022/05/16 12:09:15;;;;;;;6.20;1.77;;;;;;;28.88;23.45;101077.81;5040823;28;20052;-57
2022/05/16 12:11:56;;;;;;;8.60;1.98;;;;;;;28.97;22.66;101088.31;5055855;28;20045;-56
2022/05/16 12:14:32;;;;;;;4.10;2.08;;;;;;;29.09;22.25;101079.59;5046828;28;20500;-57
2022/05/16 12:17:17;;;;;;;3.53;2.20;;;;;;;29.15;22.12;101074.25;5045593;28;20045;-55
2022/05/16 12:19:48;;;;;;;7.60;2.67;;;;;;;29.41;22.29;101072.69;5041058;28;20739;-57
2022/05/16 12:22:43;;;;;;;6.25;2.50;;;;;;;29.62;22.26;101069.00;5051485;28;20049;-57